createdAt,value
2019-01-27T00:01:51.742Z,1.12
2019-01-27T00:06:48.681Z,1.07
2019-01-27T00:11:46.489Z,1.18
2019-01-27T00:16:43.920Z,1.12
2019-01-27T00:21:41.057Z,1.20
2019-01-27T00:26:37.992Z,1.11
2019-01-27T00:31:34.938Z,1.12
2019-01-27T00:36:31.897Z,1.21
2019-01-27T00:41:28.797Z,1.14
2019-01-27T00:46:25.753Z,1.11
2019-01-27T00:51:22.698Z,1.10
2019-01-27T00:56:19.645Z,1.18
2019-01-27T01:01:16.566Z,1.22
2019-01-27T01:06:13.591Z,1.30
2019-01-27T01:11:10.492Z,1.26
2019-01-27T01:16:07.484Z,0.86
2019-01-27T01:21:04.815Z,1.08
2019-01-27T01:26:01.855Z,1.17
2019-01-27T01:30:58.787Z,1.25
2019-01-27T01:35:55.737Z,1.27
2019-01-27T01:40:52.649Z,1.31
2019-01-27T01:45:49.786Z,1.44
2019-01-27T01:50:46.689Z,1.25
2019-01-27T01:55:44.069Z,1.30
2019-01-27T02:00:40.960Z,1.44
2019-01-27T02:05:37.905Z,1.36
2019-01-27T02:10:34.803Z,1.25
2019-01-27T02:15:39.994Z,1.20
2019-01-27T02:20:36.968Z,1.29
2019-01-27T02:25:33.897Z,1.09
2019-01-27T02:30:31.508Z,1.10
2019-01-27T02:35:28.446Z,1.27
2019-01-27T02:40:25.349Z,1.31
2019-01-27T02:45:22.572Z,1.29
2019-01-27T02:50:19.493Z,1.37
2019-01-27T02:55:16.456Z,1.36
2019-01-27T03:00:19.290Z,1.40
2019-01-27T03:05:20.777Z,1.17
2019-01-27T03:10:17.685Z,1.10
2019-01-27T03:15:16.436Z,1.15
2019-01-27T03:20:13.550Z,1.38
2019-01-27T03:25:14.312Z,1.14
2019-01-27T03:30:16.054Z,1.33
2019-01-27T03:35:12.961Z,1.24
2019-01-27T03:40:16.188Z,1.41
2019-01-27T03:45:18.520Z,1.33
2019-01-27T03:50:17.651Z,1.18
2019-01-27T03:55:27.429Z,1.15
2019-01-27T04:00:24.936Z,1.05
2019-01-27T04:05:22.497Z,1.09
2019-01-27T04:10:25.041Z,1.02
2019-01-27T04:15:23.191Z,1.02
2019-01-27T04:20:22.536Z,1.11
2019-01-27T04:25:21.401Z,1.20
2019-01-27T04:30:25.251Z,1.18
2019-01-27T04:35:22.415Z,1.12
2019-01-27T04:40:21.756Z,0.98
2019-01-27T04:45:35.328Z,0.98
2019-01-27T04:50:32.233Z,0.91
2019-01-27T04:55:29.175Z,0.95
2019-01-27T05:00:26.485Z,0.97
2019-01-27T05:05:23.441Z,1.04
2019-01-27T05:10:20.378Z,0.66
2019-01-27T05:15:21.484Z,0.74
2019-01-27T05:20:18.419Z,0.80
2019-01-27T05:25:16.791Z,0.71
2019-01-27T05:30:20.289Z,0.36
2019-01-27T05:35:17.206Z,0.41
2019-01-27T05:40:16.666Z,0.21
2019-01-27T05:45:16.580Z,0.22
2019-01-27T05:50:15.138Z,0.16
2019-01-27T05:55:21.081Z,0.11
2019-01-27T06:00:34.749Z,-0.01
2019-01-27T06:05:31.673Z,-0.14
2019-01-27T06:10:28.638Z,-0.12
2019-01-27T06:15:25.643Z,-0.05
2019-01-27T06:20:22.585Z,-0.30
2019-01-27T06:25:19.609Z,-0.21
2019-01-27T06:30:25.456Z,-0.41
2019-01-27T06:35:22.349Z,-0.09
2019-01-27T06:40:19.281Z,0.16
2019-01-27T06:45:16.203Z,0.37
2019-01-27T06:50:13.640Z,0.66
2019-01-27T06:55:20.501Z,1.09
2019-01-27T07:00:25.628Z,1.54
2019-01-27T07:05:24.370Z,2.35
2019-01-27T07:10:23.103Z,2.25
2019-01-27T07:15:25.749Z,1.98
2019-01-27T07:20:24.484Z,1.84
2019-01-27T07:25:35.660Z,1.47
2019-01-27T07:30:51.486Z,1.62
2019-01-27T07:35:53.139Z,1.91
2019-01-27T07:40:51.836Z,2.05
2019-01-27T07:45:50.581Z,2.08
2019-01-27T07:51:04.511Z,2.18
2019-01-27T07:56:09.021Z,2.39
2019-01-27T08:01:26.314Z,2.47
2019-01-27T08:06:25.025Z,2.36
2019-01-27T08:11:23.741Z,3.24
2019-01-27T08:16:25.063Z,5.58
2019-01-27T08:21:29.637Z,6.46
2019-01-27T08:26:28.362Z,5.78
2019-01-27T08:31:36.598Z,5.69
2019-01-27T08:36:35.329Z,5.22
2019-01-27T08:41:34.089Z,5.54
2019-01-27T08:46:32.802Z,5.33
2019-01-27T08:51:29.766Z,4.89
2019-01-27T08:56:26.676Z,4.86
2019-01-27T09:01:34.442Z,6.04
2019-01-27T09:06:35.677Z,5.68
2019-01-27T09:11:34.434Z,4.98
2019-01-27T09:16:33.165Z,4.95
2019-01-27T09:21:48.664Z,4.51
2019-01-27T09:26:55.989Z,4.66
2019-01-27T09:31:58.925Z,5.16
2019-01-27T09:37:04.381Z,4.82
2019-01-27T09:42:05.642Z,5.63
2019-01-27T09:47:10.359Z,6.04
2019-01-27T09:52:09.168Z,5.91
2019-01-27T09:57:07.944Z,5.46
2019-01-27T10:02:06.736Z,5.12
2019-01-27T10:07:22.410Z,4.86
2019-01-27T10:12:33.037Z,4.94
2019-01-27T10:17:48.398Z,4.94
2019-01-27T10:22:52.966Z,5.13
2019-01-27T10:28:10.157Z,5.01
2019-01-27T10:33:08.923Z,4.99
2019-01-27T10:38:07.652Z,5.00
2019-01-27T10:43:06.454Z,5.47
2019-01-27T10:48:05.770Z,5.83
2019-01-27T10:53:04.572Z,5.82
2019-01-27T10:58:06.001Z,5.90
2019-01-27T11:03:04.902Z,5.72
2019-01-27T11:08:09.577Z,5.17
2019-01-27T11:13:06.750Z,4.87
2019-01-27T11:18:12.650Z,4.62
2019-01-27T11:23:28.489Z,4.68
2019-01-27T11:28:27.273Z,4.95
2019-01-27T11:33:42.530Z,4.95
2019-01-27T11:38:44.060Z,4.64
2019-01-27T11:43:59.651Z,4.71
2019-01-27T11:49:01.180Z,4.84
2019-01-27T11:53:58.225Z,5.03
2019-01-27T11:58:55.222Z,4.46
2019-01-27T12:03:52.114Z,3.83
2019-01-27T12:08:49.068Z,4.10
2019-01-27T12:13:45.967Z,4.30
2019-01-27T12:18:42.929Z,4.50
2019-01-27T12:23:40.148Z,4.87
2019-01-27T12:28:37.102Z,4.47
2019-01-27T12:33:34.915Z,4.91
2019-01-27T12:38:31.864Z,4.44
2019-01-27T12:43:28.786Z,5.04
2019-01-27T12:48:25.727Z,5.22
2019-01-27T12:53:22.748Z,4.99
2019-01-27T12:58:20.195Z,4.95
2019-01-27T13:03:17.093Z,4.48
2019-01-27T13:08:14.106Z,4.47
2019-01-27T13:13:12.150Z,4.56
2019-01-27T13:18:09.299Z,4.47
2019-01-27T13:23:06.359Z,4.47
2019-01-27T13:28:03.604Z,4.29
2019-01-27T13:33:03.305Z,4.49
2019-01-27T13:38:00.370Z,4.38
2019-01-27T13:42:57.384Z,3.86
2019-01-27T13:47:58.907Z,3.86
2019-01-27T13:52:53.776Z,3.74
2019-01-27T13:57:50.719Z,3.61
2019-01-27T14:02:47.629Z,3.74
2019-01-27T14:07:44.560Z,3.77
2019-01-27T14:12:42.629Z,3.98
2019-01-27T14:17:39.570Z,3.39
2019-01-27T14:22:36.495Z,3.37
2019-01-27T14:27:33.448Z,3.32
2019-01-27T14:32:30.357Z,3.58
2019-01-27T14:37:27.329Z,3.16
2019-01-27T14:42:24.277Z,2.97
2019-01-27T14:47:21.760Z,2.84
2019-01-27T14:52:18.850Z,3.05
2019-01-27T14:57:16.225Z,2.69
2019-01-27T15:02:13.166Z,2.80
2019-01-27T15:07:10.110Z,2.66
2019-01-27T15:12:07.037Z,2.59
2019-01-27T15:17:04.265Z,2.32
2019-01-27T15:22:01.273Z,2.38
2019-01-27T15:27:01.383Z,2.41
2019-01-27T15:31:58.283Z,2.23
2019-01-27T15:36:55.265Z,2.19
2019-01-27T15:41:52.188Z,2.25
2019-01-27T15:46:49.309Z,2.44
2019-01-27T15:51:46.262Z,2.38
2019-01-27T15:56:43.206Z,2.30
2019-01-27T16:01:40.119Z,2.42
2019-01-27T16:06:37.185Z,2.57
2019-01-27T16:11:34.095Z,2.01
2019-01-27T16:16:31.033Z,1.93
2019-01-27T16:21:28.073Z,1.99
2019-01-27T16:26:25.059Z,1.88
2019-01-27T16:31:29.863Z,1.95
2019-01-27T16:36:26.824Z,1.76
2019-01-27T16:41:23.769Z,1.80
2019-01-27T16:46:20.710Z,1.81
2019-01-27T16:51:17.697Z,1.55
2019-01-27T16:56:14.714Z,1.44
2019-01-27T17:01:11.786Z,1.54
2019-01-27T17:06:08.696Z,1.59
2019-01-27T17:11:05.625Z,1.59
2019-01-27T17:16:03.454Z,1.68
2019-01-27T17:21:00.629Z,1.61
2019-01-27T17:25:57.552Z,1.59
2019-01-27T17:30:54.499Z,1.77
2019-01-27T17:35:51.393Z,1.76
2019-01-27T17:40:48.501Z,1.82
2019-01-27T17:45:45.553Z,1.89
2019-01-27T17:50:42.492Z,1.86
2019-01-27T17:55:42.102Z,1.84
2019-01-27T18:00:43.350Z,1.74
2019-01-27T18:05:42.099Z,1.70
2019-01-27T18:10:52.890Z,1.72
2019-01-27T18:15:49.792Z,1.54
2019-01-27T18:20:46.813Z,1.65
2019-01-27T18:25:43.614Z,1.56
2019-01-27T18:30:40.666Z,1.36
2019-01-27T18:35:37.575Z,1.24
2019-01-27T18:40:34.519Z,1.34
2019-01-27T18:45:31.448Z,1.55
2019-01-27T18:50:28.388Z,1.63
2019-01-27T18:55:35.957Z,1.45
2019-01-27T19:00:49.609Z,1.31
2019-01-27T19:05:57.427Z,1.47
2019-01-27T19:11:02.228Z,1.48
2019-01-27T19:16:00.957Z,1.63
2019-01-27T19:21:17.977Z,1.40
2019-01-27T19:26:16.788Z,1.40
2019-01-27T19:31:21.175Z,1.48
2019-01-27T19:36:29.301Z,1.53
2019-01-27T19:41:28.035Z,1.29
2019-01-27T19:46:26.821Z,1.45
2019-01-27T19:51:25.544Z,1.54
2019-01-27T19:56:30.524Z,1.59
2019-01-27T20:01:32.064Z,1.73
2019-01-27T20:06:28.887Z,1.74
2019-01-27T20:11:30.573Z,1.96
2019-01-27T20:16:30.183Z,1.77
2019-01-27T20:21:37.502Z,1.94
2019-01-27T20:26:41.971Z,1.90
2019-01-27T20:31:40.718Z,1.75
2019-01-27T20:36:42.228Z,2.02
2019-01-27T20:41:41.020Z,2.14
2019-01-27T20:46:42.748Z,2.30
2019-01-27T20:51:50.396Z,2.50
2019-01-27T20:56:49.106Z,2.64
2019-01-27T21:01:59.805Z,2.86
2019-01-27T21:06:58.505Z,2.92
2019-01-27T21:12:13.949Z,3.09
2019-01-27T21:17:15.489Z,3.18
2019-01-27T21:22:12.412Z,3.31
2019-01-27T21:27:09.369Z,3.55
2019-01-27T21:32:06.338Z,3.36
2019-01-27T21:37:03.494Z,3.56
2019-01-27T21:42:00.392Z,3.65
2019-01-27T21:46:57.332Z,3.59
2019-01-27T21:51:54.267Z,3.71
2019-01-27T21:56:51.209Z,3.80
2019-01-27T22:01:48.166Z,3.96
2019-01-27T22:06:45.100Z,3.94
2019-01-27T22:11:42.021Z,4.00
2019-01-27T22:16:38.978Z,4.09
2019-01-27T22:21:35.922Z,3.92
2019-01-27T22:26:32.917Z,4.23
2019-01-27T22:31:29.861Z,4.19
2019-01-27T22:36:27.170Z,4.31
2019-01-27T22:41:24.073Z,4.09
2019-01-27T22:46:21.029Z,4.19
2019-01-27T22:51:17.952Z,4.23
2019-01-27T22:56:15.341Z,4.11
2019-01-27T23:01:13.042Z,4.30
2019-01-27T23:06:10.042Z,4.36
2019-01-27T23:11:06.956Z,4.32
2019-01-27T23:16:04.501Z,4.33
2019-01-27T23:21:01.437Z,4.44
2019-01-27T23:25:58.407Z,4.51
2019-01-27T23:30:55.305Z,4.64
2019-01-27T23:35:52.762Z,4.67
2019-01-27T23:40:49.678Z,4.46
2019-01-27T23:45:46.936Z,4.70
2019-01-27T23:50:43.846Z,4.68
2019-01-27T23:55:40.820Z,4.63
